Time;durP1;ratioP1;P1;durP2;ratioP2;P2;SDS_P1;SDS_P2;PMS_P1;PMS_P2;Temp;Humidity;BMP_temperature;BMP_pressure;BME280_temperature;BME280_humidity;BME280_pressure;Samples;Min_cycle;Max_cycle;Signal;HPM_P1;HPM_P2
2024/04/17 00:01:40;;;;;;;9.32;7.60;;;;;;;7.32;100.00;99531.94;7394441;19;20006;-78
2024/04/17 00:04:06;;;;;;;9.57;7.85;;;;;;;7.39;100.00;99539.50;7390652;19;20325;-77
2024/04/17 00:06:31;;;;;;;9.30;7.30;;;;;;;6.95;100.00;99461.72;7389370;19;20014;-79
2024/04/17 00:08:57;;;;;;;9.27;7.43;;;;;;;7.32;100.00;99519.63;7396097;19;20011;-78
2024/04/17 00:11:23;;;;;;;10.88;8.52;;;;;;;7.44;100.00;99536.63;7404592;19;20010;-78
2024/04/17 00:13:50;;;;;;;8.95;7.88;;;;;;;7.51;100.00;99545.09;7402539;19;20021;-79
2024/04/17 00:16:17;;;;;;;9.27;7.68;;;;;;;7.55;100.00;99555.44;7394218;19;20028;-77
2024/04/17 00:18:42;;;;;;;9.77;7.63;;;;;;;7.28;100.00;99494.38;7401365;19;20017;-79
2024/04/17 00:21:08;;;;;;;10.80;8.40;;;;;;;7.55;100.00;99533.50;7390917;19;20014;-78
2024/04/17 00:23:33;;;;;;;11.27;8.52;;;;;;;7.38;100.00;99495.66;7392396;19;20014;-80
2024/04/17 00:25:59;;;;;;;9.68;8.68;;;;;;;6.83;100.00;99414.94;7385253;19;20145;-79
2024/04/17 00:28:25;;;;;;;11.02;8.60;;;;;;;7.18;100.00;99489.63;7388900;19;20023;-81
2024/04/17 00:30:51;;;;;;;11.10;9.05;;;;;;;6.89;100.00;99444.47;7390965;19;20010;-78
2024/04/17 00:33:16;;;;;;;10.50;8.70;;;;;;;6.86;100.00;99433.22;7392742;19;20015;-81
2024/04/17 00:35:42;;;;;;;10.95;9.52;;;;;;;7.02;100.00;99461.38;7388682;19;20014;-79
2024/04/17 00:38:07;;;;;;;11.63;9.50;;;;;;;7.51;100.00;99547.75;7390263;19;20440;-79
2024/04/17 00:40:33;;;;;;;11.07;9.30;;;;;;;7.48;100.00;99538.19;7389625;19;20183;-78
2024/04/17 00:43:00;;;;;;;11.68;9.00;;;;;;;7.34;100.00;99517.78;7389383;19;20499;-79
2024/04/17 00:45:38;;;;;;;12.70;9.93;;;;;;;7.48;100.00;99545.25;7385976;19;20447;-78
2024/04/17 00:48:07;;;;;;;11.85;9.55;;;;;;;7.15;100.00;99490.63;7391423;19;20546;-78
2024/04/17 00:50:34;;;;;;;11.98;9.30;;;;;;;7.25;100.00;99510.31;7386369;19;20617;-79
2024/04/17 00:53:00;;;;;;;12.50;10.35;;;;;;;7.23;100.00;99504.28;7381589;19;20014;-80
2024/04/17 00:55:26;;;;;;;13.43;10.18;;;;;;;7.20;100.00;99501.78;7389139;19;20033;-78
2024/04/17 00:57:52;;;;;;;12.23;9.77;;;;;;;7.11;100.00;99491.69;7384739;19;20021;-77
2024/04/17 01:00:18;;;;;;;13.75;10.63;;;;;;;7.30;100.00;99513.59;7393306;19;20010;-77
2024/04/17 01:02:44;;;;;;;14.45;10.77;;;;;;;7.33;100.00;99523.97;7398129;19;20073;-80
2024/04/17 01:05:09;;;;;;;15.18;11.15;;;;;;;7.25;100.00;99510.31;7386612;19;20025;-78
2024/04/17 01:07:37;;;;;;;14.15;11.35;;;;;;;6.96;100.00;99466.94;7386063;19;20130;-79
2024/04/17 01:10:02;;;;;;;15.13;11.55;;;;;;;7.43;100.00;99547.22;7391460;19;20047;-79
2024/04/17 01:12:29;;;;;;;14.98;11.25;;;;;;;7.42;100.00;99558.69;7396058;19;20013;-79
2024/04/17 01:14:54;;;;;;;16.10;12.20;;;;;;;7.06;100.00;99488.44;7398084;19;20035;-77
2024/04/17 01:17:20;;;;;;;15.73;12.68;;;;;;;6.61;100.00;99413.31;7405250;19;20007;-77
2024/04/17 01:19:46;;;;;;;15.32;12.10;;;;;;;7.39;100.00;99539.50;7417030;19;20025;-78
2024/04/17 01:22:11;;;;;;;16.55;13.07;;;;;;;6.99;100.00;99472.06;7416633;19;20014;-78
2024/04/17 01:24:38;;;;;;;18.80;13.95;;;;;;;7.09;100.00;99496.16;7406511;19;20042;-79
2024/04/17 01:27:03;;;;;;;16.88;13.30;;;;;;;6.87;100.00;99470.00;7403638;19;20011;-78
2024/04/17 01:29:29;;;;;;;19.42;14.55;;;;;;;6.99;100.00;99482.59;7420878;19;20010;-77
2024/04/17 01:32:00;;;;;;;20.05;14.32;;;;;;;7.43;100.00;99555.13;7407895;19;20022;-78
2024/04/17 01:34:25;;;;;;;20.20;14.77;;;;;;;7.04;100.00;99480.59;7403168;19;20010;-79
2024/04/17 01:36:52;;;;;;;18.45;14.40;;;;;;;7.42;100.00;99549.00;7401268;19;20034;-78
2024/04/17 01:39:19;;;;;;;18.98;13.80;;;;;;;7.00;100.00;99484.28;7398293;19;20007;-80
2024/04/17 01:41:44;;;;;;;17.67;14.18;;;;;;;7.30;100.00;99534.66;7392189;19;20014;-80
2024/04/17 01:44:10;;;;;;;19.70;14.40;;;;;;;7.03;100.00;99494.69;7391907;19;20023;-78
2024/04/17 01:46:36;;;;;;;18.13;13.90;;;;;;;7.12;100.00;99514.44;7390957;19;20023;-78
2024/04/17 01:49:01;;;;;;;18.52;13.88;;;;;;;7.16;100.00;99523.91;7392266;19;20034;-79
2024/04/17 01:51:27;;;;;;;19.25;14.23;;;;;;;7.30;100.00;99544.34;7395493;19;20018;-78
2024/04/17 01:53:52;;;;;;;18.23;13.82;;;;;;;7.10;100.00;99500.50;7396829;19;20486;-81
2024/04/17 01:56:18;;;;;;;15.45;12.55;;;;;;;6.98;100.00;99478.25;7393739;19;20315;-77
2024/04/17 01:58:44;;;;;;;16.95;12.70;;;;;;;7.49;100.00;99557.50;7395567;19;20018;-79
2024/04/17 02:01:09;;;;;;;14.82;11.95;;;;;;;7.51;100.00;99559.13;7395332;19;20007;-78
2024/04/17 02:03:50;;;;;;;15.15;12.00;;;;;;;7.22;100.00;99509.63;7395171;19;20010;-78
2024/04/17 02:06:15;;;;;;;14.45;11.00;;;;;;;7.47;100.00;99549.66;7370422;19;20031;-79
2024/04/17 02:08:41;;;;;;;14.73;11.65;;;;;;;7.47;100.00;99548.81;7394156;19;20019;-78
2024/04/17 02:11:07;;;;;;;15.15;11.40;;;;;;;7.60;100.00;99557.81;7393280;19;20011;-80
2024/04/17 02:13:33;;;;;;;14.23;11.30;;;;;;;7.20;100.00;99495.66;7396890;19;20011;-81
2024/04/17 02:16:03;;;;;;;12.73;10.27;;;;;;;7.39;100.00;99526.34;7390467;19;20002;-78
2024/04/17 02:18:28;;;;;;;12.50;10.57;;;;;;;7.27;100.00;99507.59;7391954;19;20018;-79
2024/04/17 02:20:57;;;;;;;14.02;10.75;;;;;;;7.42;100.00;99549.00;7393134;19;20010;-79
2024/04/17 02:23:28;;;;;;;12.35;9.88;;;;;;;7.17;100.00;99498.44;7394757;19;20018;-79
2024/04/17 02:25:55;;;;;;;9.90;8.40;;;;;;;7.56;100.00;99567.66;7390944;19;20700;-78
2024/04/17 02:28:23;;;;;;;10.70;8.65;;;;;;;7.35;100.00;99529.19;7407858;19;20018;-75
2024/04/17 02:30:50;;;;;;;10.45;8.27;;;;;;;7.55;100.00;99576.50;7409843;19;20019;-78
2024/04/17 02:33:16;;;;;;;10.50;8.45;;;;;;;7.57;100.00;99571.13;7394747;19;20032;-80
2024/04/17 02:35:41;;;;;;;12.73;9.15;;;;;;;7.20;100.00;99512.31;7374703;19;20015;-77
2024/04/17 02:38:08;;;;;;;12.85;9.35;;;;;;;7.32;100.00;99526.69;7391783;19;20462;-83
2024/04/17 02:40:34;;;;;;;13.68;8.43;;;;;;;7.36;100.00;99549.31;7395289;19;20484;-79
2024/04/17 02:43:01;;;;;;;13.88;8.85;;;;;;;7.18;100.00;99503.63;7395385;19;20013;-79
2024/04/17 02:45:28;;;;;;;10.85;8.75;;;;;;;7.43;100.00;99542.81;7395597;19;20015;-79
2024/04/17 02:47:53;;;;;;;11.02;8.63;;;;;;;7.14;100.00;99507.34;7393776;19;20018;-78
2024/04/17 02:50:19;;;;;;;9.43;7.97;;;;;;;7.55;100.00;99567.75;7390318;19;20014;-78
2024/04/17 02:52:46;;;;;;;10.13;7.95;;;;;;;7.45;100.00;99545.38;7391754;19;20100;-78
2024/04/17 02:55:13;;;;;;;10.90;8.38;;;;;;;7.62;100.00;99583.16;7370243;19;20007;-78
2024/04/17 02:57:41;;;;;;;13.25;8.70;;;;;;;7.34;100.00;99540.63;7386696;19;20014;-78
2024/04/17 03:00:07;;;;;;;11.00;8.68;;;;;;;7.23;100.00;99517.44;7389287;19;20011;-79
2024/04/17 03:02:33;;;;;;;10.15;7.90;;;;;;;7.54;100.00;99568.66;7393292;19;20003;-78
2024/04/17 03:04:58;;;;;;;10.68;7.50;;;;;;;7.61;100.00;99597.28;7393885;19;20103;-77
2024/04/17 03:07:24;;;;;;;8.68;7.78;;;;;;;7.62;100.00;99593.72;7392178;19;20014;-81
2024/04/17 03:09:53;;;;;;;9.80;7.68;;;;;;;7.63;100.00;99587.53;7395792;19;20013;-80
2024/04/17 03:12:19;;;;;;;10.38;7.30;;;;;;;7.29;100.00;99532.94;7372964;19;20026;-79
2024/04/17 03:14:44;;;;;;;8.57;7.13;;;;;;;7.49;100.00;99565.41;7393742;19;20041;-77
2024/04/17 03:17:10;;;;;;;11.52;7.25;;;;;;;7.55;100.00;99573.88;7388703;19;20082;-78
2024/04/17 03:19:36;;;;;;;10.85;7.05;;;;;;;7.54;100.00;99571.31;7391953;19;20010;-77
2024/04/17 03:22:01;;;;;;;8.70;6.75;;;;;;;7.30;100.00;99528.53;7393492;19;20014;-79
2024/04/17 03:24:27;;;;;;;8.25;6.63;;;;;;;7.61;100.00;99585.88;7406529;19;20018;-80
2024/04/17 03:26:54;;;;;;;8.27;5.82;;;;;;;7.15;100.00;99519.56;7396483;19;20010;-78
2024/04/17 03:29:20;;;;;;;10.52;7.35;;;;;;;7.39;100.00;99563.22;7398964;19;20014;-79
2024/04/17 03:31:45;;;;;;;8.35;6.57;;;;;;;7.53;100.00;99588.03;7401243;19;20018;-78
2024/04/17 03:34:11;;;;;;;11.43;7.25;;;;;;;7.28;100.00;99540.91;7406518;19;20014;-80
2024/04/17 03:36:38;;;;;;;11.32;7.53;;;;;;;7.21;100.00;99534.25;7396257;19;20044;-77
2024/04/17 03:39:03;;;;;;;8.30;6.07;;;;;;;7.46;100.00;99586.59;7394063;19;20018;-76
2024/04/17 03:41:29;;;;;;;10.02;7.07;;;;;;;7.43;100.00;99581.47;7399475;19;20035;-78
2024/04/17 03:43:54;;;;;;;10.40;6.32;;;;;;;7.42;100.00;99577.13;7402880;19;20048;-77
2024/04/17 03:46:21;;;;;;;9.52;6.53;;;;;;;7.47;100.00;99586.53;7383867;19;20027;-77
2024/04/17 03:48:47;;;;;;;9.13;6.57;;;;;;;7.44;100.00;99576.13;7386561;19;20365;-79
2024/04/17 03:51:13;;;;;;;8.25;6.30;;;;;;;7.62;100.00;99613.94;7407046;19;20014;-78
2024/04/17 03:53:39;;;;;;;9.90;6.10;;;;;;;7.18;100.00;99529.13;7405115;19;20013;-80
2024/04/17 03:56:05;;;;;;;9.77;6.45;;;;;;;7.28;100.00;99568.09;7389089;19;20015;-80
2024/04/17 03:58:31;;;;;;;9.25;6.22;;;;;;;7.04;100.00;99527.13;7384268;19;20010;-79
2024/04/17 04:00:59;;;;;;;7.82;5.85;;;;;;;7.57;100.00;99626.47;7387853;19;20006;-78
2024/04/17 04:03:24;;;;;;;12.93;6.07;;;;;;;6.67;100.00;99477.94;7389446;19;20347;-77
2024/04/17 04:05:50;;;;;;;10.52;6.40;;;;;;;7.28;100.00;99589.16;7368992;19;20029;-81
2024/04/17 04:08:17;;;;;;;8.30;5.63;;;;;;;6.91;100.00;99541.78;7368315;19;20173;-78
2024/04/17 04:10:46;;;;;;;7.95;5.95;;;;;;;6.61;100.00;99507.19;7394091;19;20425;-78
2024/04/17 04:13:12;;;;;;;9.07;5.82;;;;;;;7.31;100.00;99628.53;7393772;19;20010;-80
2024/04/17 04:15:38;;;;;;;9.43;5.72;;;;;;;7.03;100.00;99593.84;7392551;19;20025;-78
2024/04/17 04:18:05;;;;;;;6.78;5.05;;;;;;;7.13;100.00;99615.34;7387984;19;20104;-78
2024/04/17 04:20:32;;;;;;;8.13;5.95;;;;;;;7.00;100.00;99612.41;7392513;19;21581;-78
2024/04/17 04:22:58;;;;;;;8.75;5.63;;;;;;;7.18;100.00;99640.56;7394319;19;20021;-80
2024/04/17 04:25:23;;;;;;;7.57;5.97;;;;;;;7.15;100.00;99648.59;7394370;19;20006;-80
2024/04/17 04:27:49;;;;;;;8.98;4.88;;;;;;;6.73;100.00;99587.34;7390088;19;20088;-78
2024/04/17 04:30:14;;;;;;;8.25;4.32;;;;;;;7.04;100.00;99648.22;7389685;19;20048;-82
2024/04/17 04:32:40;;;;;;;8.30;4.55;;;;;;;6.89;100.00;99633.09;7391797;19;20021;-77
2024/04/17 04:35:06;;;;;;;7.70;4.85;;;;;;;6.91;100.00;99647.06;7390559;19;20018;-80
2024/04/17 04:37:31;;;;;;;6.47;4.50;;;;;;;6.76;100.00;99632.78;7388466;19;20014;-77
2024/04/17 04:39:57;;;;;;;9.02;4.95;;;;;;;6.89;100.00;99670.81;7391275;19;22171;-81
2024/04/17 04:42:22;;;;;;;7.85;4.18;;;;;;;6.56;100.00;99617.00;7391051;19;20033;-79
2024/04/17 04:44:48;;;;;;;8.43;4.70;;;;;;;6.38;100.00;99589.72;7393835;19;20363;-79
2024/04/17 04:47:14;;;;;;;8.02;4.32;;;;;;;6.47;100.00;99623.50;7395625;19;20010;-78
2024/04/17 04:49:40;;;;;;;8.80;4.50;;;;;;;6.75;100.00;99664.44;7398701;19;20010;-77
2024/04/17 04:52:09;;;;;;;6.70;4.38;;;;;;;6.81;100.00;99670.25;7392880;19;20010;-78
2024/04/17 04:54:35;;;;;;;6.30;3.85;;;;;;;6.63;100.00;99650.84;7393381;19;20034;-79
2024/04/17 04:57:02;;;;;;;8.23;4.22;;;;;;;6.69;100.00;99665.53;7395210;19;20361;-77
2024/04/17 04:59:27;;;;;;;7.95;3.92;;;;;;;6.70;100.00;99675.13;7394230;19;20022;-78
2024/04/17 05:01:53;;;;;;;7.05;4.00;;;;;;;6.44;100.00;99642.06;7393498;19;20034;-79
2024/04/17 05:04:19;;;;;;;8.98;3.85;;;;;;;6.06;100.00;99587.56;7396113;19;20053;-78
2024/04/17 05:06:46;;;;;;;6.82;3.85;;;;;;;6.69;100.00;99683.94;7403754;19;20031;-75
2024/04/17 05:09:11;;;;;;;6.45;3.40;;;;;;;6.47;100.00;99654.19;7413955;19;19999;-76
2024/04/17 05:11:37;;;;;;;9.23;4.30;;;;;;;6.64;100.00;99683.28;7399268;19;20476;-78
2024/04/17 05:14:02;;;;;;;9.88;4.13;;;;;;;6.62;100.00;99683.34;7395286;19;20011;-77
2024/04/17 05:16:29;;;;;;;8.45;3.70;;;;;;;6.47;100.00;99659.47;7396007;19;20035;-77
2024/04/17 05:18:54;;;;;;;7.10;3.55;;;;;;;6.55;100.00;99670.53;7391405;19;20128;-77
2024/04/17 05:21:21;;;;;;;8.23;3.75;;;;;;;6.48;100.00;99661.16;7391050;19;20014;-79
2024/04/17 05:23:47;;;;;;;9.32;3.85;;;;;;;6.67;100.00;99697.16;7394940;19;20010;-79
2024/04/17 05:26:15;;;;;;;11.77;3.70;;;;;;;6.61;100.00;99701.84;7396653;19;20028;-79
2024/04/17 05:28:41;;;;;;;10.43;3.90;;;;;;;6.52;100.00;99679.41;7386618;19;20003;-78
2024/04/17 05:31:07;;;;;;;7.57;3.63;;;;;;;6.41;100.00;99665.84;7394528;19;20010;-79
2024/04/17 05:33:33;;;;;;;9.45;3.72;;;;;;;6.65;100.00;99706.03;7393294;19;20038;-79
2024/04/17 05:36:01;;;;;;;5.75;3.40;;;;;;;6.44;100.00;99673.63;7394183;19;20022;-76
2024/04/17 05:38:26;;;;;;;6.35;3.72;;;;;;;6.74;100.00;99728.50;7390365;19;20022;-79
2024/04/17 05:40:53;;;;;;;11.90;3.90;;;;;;;6.63;100.00;99706.09;7409154;19;20042;-83
2024/04/17 05:43:23;;;;;;;9.27;4.07;;;;;;;6.71;100.00;99720.72;7396622;19;20380;-80
2024/04/17 05:45:49;;;;;;;10.63;4.50;;;;;;;6.76;100.00;99732.78;7393069;19;20011;-78
2024/04/17 05:48:14;;;;;;;7.82;3.47;;;;;;;6.51;100.00;99684.72;7381841;19;20026;-78
2024/04/17 05:50:42;;;;;;;8.65;3.60;;;;;;;6.84;100.00;99735.06;7385680;19;20014;-80
2024/04/17 05:53:09;;;;;;;8.68;3.97;;;;;;;6.88;100.00;99736.66;7389133;19;20010;-79
2024/04/17 05:55:38;;;;;;;6.38;3.33;;;;;;;6.67;100.00;99704.22;7391090;19;20018;-78
2024/04/17 05:58:07;;;;;;;9.15;4.20;;;;;;;6.69;100.00;99681.31;7385991;19;20026;-78
2024/04/17 06:00:36;;;;;;;8.98;4.07;;;;;;;6.89;100.00;99719.97;7392526;19;20025;-81
2024/04/17 06:03:02;;;;;;;9.38;3.65;;;;;;;6.64;100.00;99678.03;7389525;19;20094;-80
2024/04/17 06:05:28;;;;;;;11.70;4.00;;;;;;;7.00;100.00;99749.28;7393975;19;20021;-79
2024/04/17 06:07:54;;;;;;;7.75;4.10;;;;;;;6.52;100.00;99684.66;7391058;19;20137;-79
2024/04/17 06:10:20;;;;;;;6.65;3.70;;;;;;;6.51;100.00;99684.72;7390724;19;20018;-78
2024/04/17 06:12:46;;;;;;;8.38;3.47;;;;;;;6.72;100.00;99725.06;7395131;19;20011;-79
2024/04/17 06:15:11;;;;;;;9.43;3.70;;;;;;;6.66;100.00;99719.13;7390889;19;20006;-79
2024/04/17 06:17:37;;;;;;;8.63;3.65;;;;;;;6.56;100.00;99701.19;7390271;19;20108;-78
2024/04/17 06:20:03;;;;;;;7.82;3.42;;;;;;;6.96;100.00;99777.53;7388807;19;20010;-78
2024/04/17 06:22:29;;;;;;;5.00;3.25;;;;;;;6.68;100.00;99719.94;7392505;19;20035;-77
2024/04/17 06:24:54;;;;;;;8.85;3.00;;;;;;;6.94;100.00;99765.34;7393176;19;20007;-78
2024/04/17 06:27:20;;;;;;;8.13;3.42;;;;;;;7.00;100.00;99768.59;7392589;19;20010;-78
2024/04/17 06:29:46;;;;;;;5.35;2.53;;;;;;;7.02;100.00;99760.63;7389502;19;20010;-80
2024/04/17 06:32:13;;;;;;;7.65;2.83;;;;;;;7.08;100.00;99757.75;7360245;19;20324;-79
2024/04/17 06:34:38;;;;;;;9.80;3.08;;;;;;;6.40;100.00;99601.03;7396294;19;20019;-79
2024/04/17 06:37:04;;;;;;;6.88;3.00;;;;;;;7.67;100.00;99775.31;7396848;19;20006;-78
2024/04/17 06:39:30;;;;;;;9.18;2.83;;;;;;;7.69;100.00;99740.09;7390722;19;20700;-79
2024/04/17 06:41:58;;;;;;;5.97;2.65;;;;;;;7.69;100.00;99712.88;7391277;19;20022;-79
2024/04/17 06:44:23;;;;;;;20.40;3.83;;;;;;;8.29;100.00;99787.41;7395518;19;20014;-79
2024/04/17 06:46:50;;;;;;;11.65;3.10;;;;;;;8.05;100.00;99683.91;7393991;19;20027;-78
2024/04/17 06:49:16;;;;;;;7.80;2.58;;;;;;;8.89;100.00;99780.09;7392016;19;20006;-79
2024/04/17 06:51:41;;;;;;;5.70;2.30;;;;;;;8.74;100.00;99729.78;7389764;19;20074;-79
2024/04/17 06:54:08;;;;;;;6.70;2.65;;;;;;;8.78;100.00;99726.06;7373815;19;20646;-79
2024/04/17 06:56:34;;;;;;;6.35;2.00;;;;;;;8.82;100.00;99715.31;7391120;19;20018;-79
2024/04/17 06:59:00;;;;;;;8.02;2.03;;;;;;;8.86;100.00;99719.53;7390555;19;20015;-80
2024/04/17 07:01:28;;;;;;;3.78;1.80;;;;;;;9.12;100.00;99782.47;7392933;19;20030;-78
2024/04/17 07:03:56;;;;;;;6.75;1.90;;;;;;;8.86;100.00;99757.34;7393047;19;20444;-76
2024/04/17 07:06:21;;;;;;;5.55;1.95;;;;;;;9.03;100.00;99788.19;7370842;19;20021;-77
2024/04/17 07:08:47;;;;;;;3.05;1.33;;;;;;;8.61;98.76;99744.50;7364413;19;20010;-79
2024/04/17 07:11:13;;;;;;;6.13;1.48;;;;;;;8.42;100.00;99719.94;7389189;19;20015;-79
2024/04/17 07:13:40;;;;;;;4.72;1.30;;;;;;;8.86;99.51;99752.06;7398012;19;20026;-78
2024/04/17 07:16:09;;;;;;;3.63;1.50;;;;;;;9.04;96.32;99745.84;7398309;19;20041;-79
2024/04/17 07:18:35;;;;;;;5.07;1.30;;;;;;;8.91;87.86;99728.06;7391950;19;20021;-77
2024/04/17 07:21:01;;;;;;;3.63;1.30;;;;;;;8.90;92.99;99718.44;7391619;19;20014;-79
2024/04/17 07:23:26;;;;;;;5.53;1.20;;;;;;;9.19;92.51;99768.00;7393692;19;20325;-81
2024/04/17 07:25:52;;;;;;;4.30;1.83;;;;;;;9.20;91.75;99787.34;7391586;19;20111;-79
2024/04/17 07:28:17;;;;;;;4.45;1.90;;;;;;;9.01;93.21;99790.03;7391885;19;20010;-80
2024/04/17 07:30:43;;;;;;;3.83;1.88;;;;;;;8.86;93.91;99793.44;7389119;19;20025;-78
2024/04/17 07:33:08;;;;;;;7.20;1.77;;;;;;;8.70;99.14;99775.72;7390096;19;20015;-79
2024/04/17 07:35:34;;;;;;;6.55;1.85;;;;;;;8.63;99.76;99769.06;7393515;19;20014;-78
2024/04/17 07:38:00;;;;;;;7.00;2.00;;;;;;;8.64;99.31;99799.78;7388904;19;20014;-77
2024/04/17 07:40:29;;;;;;;9.70;1.83;;;;;;;8.31;98.85;99773.22;7390537;19;20014;-78
2024/04/17 07:42:57;;;;;;;4.60;1.80;;;;;;;7.78;100.00;99685.22;7390821;19;20034;-79
2024/04/17 07:45:24;;;;;;;5.07;2.03;;;;;;;8.34;99.77;99785.44;7392152;19;20033;-78
2024/04/17 07:47:49;;;;;;;4.60;1.80;;;;;;;8.28;100.00;99783.03;7391247;19;20018;-78
2024/04/17 07:50:16;;;;;;;4.95;1.80;;;;;;;8.16;100.00;99752.84;7386849;19;20093;-77
2024/04/17 07:52:42;;;;;;;8.75;2.15;;;;;;;8.14;100.00;99725.69;7390710;19;20035;-79
2024/04/17 07:55:08;;;;;;;8.52;2.20;;;;;;;8.27;100.00;99739.97;7391533;19;20010;-79
2024/04/17 07:57:35;;;;;;;3.65;2.35;;;;;;;8.72;97.95;99805.53;7391879;19;20035;-78
2024/04/17 08:00:01;;;;;;;4.80;1.75;;;;;;;8.48;89.68;99764.53;7385887;19;20010;-79
2024/04/17 08:02:28;;;;;;;5.10;1.48;;;;;;;8.70;78.91;99767.81;7389652;19;20003;-80
2024/04/17 08:04:55;;;;;;;3.95;1.50;;;;;;;8.85;77.61;99792.59;7388120;19;20026;-81
2024/04/17 08:07:20;;;;;;;4.97;1.73;;;;;;;8.82;80.74;99768.13;7389388;19;20046;-80
2024/04/17 08:09:46;;;;;;;4.80;1.60;;;;;;;8.14;70.81;99643.94;7387544;19;20007;-81
2024/04/17 08:12:11;;;;;;;4.18;1.45;;;;;;;9.01;71.89;99766.28;7390025;19;20018;-79
2024/04/17 08:14:37;;;;;;;3.88;1.90;;;;;;;9.16;68.14;99765.50;7391273;19;20476;-79
2024/04/17 08:17:08;;;;;;;3.28;1.70;;;;;;;8.94;66.19;99718.22;7396050;19;20028;-79
2024/04/17 08:19:36;;;;;;;3.72;1.40;;;;;;;9.13;66.50;99731.31;7386734;19;20025;-78
2024/04/17 08:22:02;;;;;;;5.30;1.50;;;;;;;9.64;66.00;99816.75;7366960;19;20039;-78
2024/04/17 08:24:28;;;;;;;5.40;1.38;;;;;;;9.60;68.18;99780.84;7389937;19;20006;-80
2024/04/17 08:26:53;;;;;;;5.05;1.80;;;;;;;9.80;63.52;99813.22;7393972;19;20007;-78
2024/04/17 08:29:19;;;;;;;5.82;1.77;;;;;;;9.60;63.55;99797.53;7389305;19;20019;-78
2024/04/17 08:31:47;;;;;;;5.65;1.90;;;;;;;9.54;64.91;99789.94;7386811;19;20018;-78
2024/04/17 08:34:13;;;;;;;4.82;1.90;;;;;;;9.29;63.30;99753.34;7387459;19;20023;-78
2024/04/17 08:36:39;;;;;;;3.47;1.40;;;;;;;9.40;64.31;99756.31;7391165;19;20452;-79
2024/04/17 08:39:04;;;;;;;4.20;1.75;;;;;;;9.94;63.22;99808.97;7394463;19;20018;-78
2024/04/17 08:41:33;;;;;;;4.15;2.20;;;;;;;9.79;60.59;99755.13;7401871;19;20057;-79
2024/04/17 08:44:00;;;;;;;4.88;2.00;;;;;;;10.15;61.36;99816.63;7368256;19;20034;-78
2024/04/17 08:46:30;;;;;;;5.60;2.30;;;;;;;10.22;61.85;99798.66;7392800;19;20010;-81
2024/04/17 08:48:56;;;;;;;4.27;1.63;;;;;;;10.08;60.48;99742.94;7402535;19;20011;-77
2024/04/17 08:51:24;;;;;;;4.55;1.80;;;;;;;10.95;57.00;99809.53;7397824;19;20015;-78
2024/04/17 08:53:57;;;;;;;4.30;2.22;;;;;;;11.07;55.75;99830.88;7399875;19;20011;-77
2024/04/17 08:56:26;;;;;;;4.97;1.90;;;;;;;10.36;56.80;99769.66;7394100;19;20019;-78
2024/04/17 08:58:52;;;;;;;4.68;2.08;;;;;;;10.42;56.85;99806.34;7407143;19;20002;-80
2024/04/17 09:01:19;;;;;;;4.65;1.90;;;;;;;10.47;57.99;99800.78;7395016;19;20272;-78
2024/04/17 09:03:45;;;;;;;3.70;1.70;;;;;;;10.64;57.67;99808.66;7390415;19;20011;-77
2024/04/17 09:06:12;;;;;;;4.45;1.50;;;;;;;10.65;57.26;99809.50;7387631;19;20011;-80
2024/04/17 09:08:38;;;;;;;5.43;1.83;;;;;;;10.53;58.30;99771.34;7391615;19;20018;-80
2024/04/17 09:11:04;;;;;;;4.82;1.83;;;;;;;10.57;56.20;99761.41;7385483;19;20034;-78
2024/04/17 09:13:30;;;;;;;6.07;1.73;;;;;;;10.69;55.11;99761.59;7393385;19;20353;-77
2024/04/17 09:15:55;;;;;;;4.25;1.60;;;;;;;11.07;56.67;99819.41;7388050;19;20010;-78
2024/04/17 09:18:25;;;;;;;6.25;1.92;;;;;;;11.10;55.81;99795.41;7391583;19;20035;-79
2024/04/17 09:20:50;;;;;;;5.53;1.90;;;;;;;11.21;55.13;99800.91;7383825;19;20046;-78
2024/04/17 09:23:17;;;;;;;3.92;1.80;;;;;;;10.69;53.80;99761.59;7387611;19;20463;-79
2024/04/17 09:25:44;;;;;;;8.23;2.13;;;;;;;10.84;54.57;99787.19;7391030;19;20003;-79
2024/04/17 09:28:11;;;;;;;3.40;1.45;;;;;;;10.84;53.47;99800.44;7389622;19;20509;-79
2024/04/17 09:30:42;;;;;;;3.13;1.25;;;;;;;11.08;53.69;99807.88;7385968;19;20006;-78
2024/04/17 09:33:10;;;;;;;;;;;;;;;11.24;53.84;99806.03;7395745;19;20456;-79
2024/04/17 09:35:38;;;;;;;3.55;1.55;;;;;;;11.10;51.79;99790.97;7396538;19;19943;-80
2024/04/17 09:38:16;;;;;;;2.70;1.38;;;;;;;10.81;50.27;99763.53;7392999;19;20123;-79
2024/04/17 09:40:46;;;;;;;3.95;1.27;;;;;;;10.99;50.30;99784.59;7394215;19;20473;-78
2024/04/17 09:43:26;;;;;;;4.93;1.30;;;;;;;11.35;50.77;99771.78;7393477;19;20003;-77
2024/04/17 09:46:02;;;;;;;1.95;1.00;;;;;;;11.44;49.84;99787.16;7398058;19;20011;-76
2024/04/17 09:48:29;;;;;;;2.03;1.00;;;;;;;11.67;50.67;99803.47;7401580;19;20017;-78
2024/04/17 09:51:03;;;;;;;3.97;1.20;;;;;;;11.80;50.08;99797.38;7396385;19;20498;-79
2024/04/17 09:53:35;;;;;;;4.25;1.15;;;;;;;11.49;49.27;99790.38;7394692;19;20014;-79
2024/04/17 09:56:02;;;;;;;2.90;1.10;;;;;;;10.72;50.35;99713.72;7397934;19;20019;-80
2024/04/17 09:58:32;;;;;;;4.35;1.30;;;;;;;11.35;48.65;99802.75;7396399;19;20057;-80
2024/04/17 10:01:02;;;;;;;4.53;1.10;;;;;;;11.43;49.31;99790.75;7391030;19;20006;-80
2024/04/17 10:03:31;;;;;;;1.85;0.93;;;;;;;11.51;48.63;99782.31;7396593;19;20487;-78
2024/04/17 10:06:00;;;;;;;3.22;1.00;;;;;;;11.47;48.08;99771.06;7396645;19;20007;-79
2024/04/17 10:08:31;;;;;;;2.05;0.88;;;;;;;11.42;45.52;99783.75;7395257;19;20484;-78
2024/04/17 10:10:57;;;;;;;2.88;1.10;;;;;;;11.05;45.95;99678.22;7389212;19;20042;-79
2024/04/17 10:13:24;;;;;;;2.15;0.88;;;;;;;11.76;45.31;99739.28;7399217;19;20336;-78
2024/04/17 10:15:50;;;;;;;5.20;1.05;;;;;;;12.00;43.64;99721.81;7399504;19;20014;-77
2024/04/17 10:18:16;;;;;;;1.60;0.98;;;;;;;12.70;43.09;99804.91;7408565;19;20010;-79
2024/04/17 10:20:42;;;;;;;2.28;1.20;;;;;;;12.25;42.93;99747.66;7377182;19;20023;-77
2024/04/17 10:23:10;;;;;;;1.27;0.80;;;;;;;12.32;44.46;99785.28;7400635;19;20018;-79
2024/04/17 10:25:57;;;;;;;2.03;1.15;;;;;;;11.56;45.32;99788.22;7397722;19;20021;-81
2024/04/17 10:28:25;;;;;;;3.00;1.00;;;;;;;11.36;46.12;99789.41;7399334;19;20014;-80
2024/04/17 10:30:56;;;;;;;2.60;1.20;;;;;;;11.29;47.18;99766.03;7396454;19;20017;-80
2024/04/17 10:33:28;;;;;;;2.08;0.98;;;;;;;11.53;47.10;99788.38;7394698;19;20030;-78
2024/04/17 10:36:00;;;;;;;1.45;0.98;;;;;;;11.44;47.05;99771.25;7393938;19;20006;-81
2024/04/17 10:38:26;;;;;;;2.05;1.10;;;;;;;11.15;45.82;99700.59;7396421;19;20015;-77
2024/04/17 10:40:54;;;;;;;5.78;1.67;;;;;;;11.68;45.69;99786.59;7388307;19;20014;-78
2024/04/17 10:43:21;;;;;;;4.45;1.20;;;;;;;11.77;45.71;99784.28;7395074;19;20364;-79
2024/04/17 10:46:10;;;;;;;1.65;0.85;;;;;;;11.58;44.90;99784.53;7389706;19;20010;-81
2024/04/17 10:48:52;;;;;;;1.75;0.70;;;;;;;11.51;44.77;99769.91;7395778;19;20006;-78
2024/04/17 10:51:18;;;;;;;1.80;1.00;;;;;;;11.52;45.39;99768.97;7389648;19;20010;-76
2024/04/17 10:53:46;;;;;;;3.13;1.20;;;;;;;11.33;45.88;99772.84;7393222;19;20026;-79
2024/04/17 10:56:16;;;;;;;3.15;1.27;;;;;;;11.32;46.54;99766.69;7394348;19;20011;-78
2024/04/17 10:58:43;;;;;;;5.20;1.48;;;;;;;11.35;48.13;99787.69;7392848;19;20010;-79
2024/04/17 11:01:12;;;;;;;4.75;1.63;;;;;;;10.86;48.64;99731.47;7389082;19;20027;-80
2024/04/17 11:03:38;;;;;;;3.72;1.80;;;;;;;10.98;49.10;99775.78;7396164;19;20014;-77
2024/04/17 11:06:07;;;;;;;4.07;1.80;;;;;;;10.73;49.74;99771.03;7394007;19;20014;-79
2024/04/17 11:08:38;;;;;;;6.60;1.90;;;;;;;10.84;50.66;99779.25;7392231;19;20037;-77
2024/04/17 11:11:04;;;;;;;4.93;1.70;;;;;;;10.71;49.86;99746.44;7387996;19;20006;-80
2024/04/17 11:13:30;;;;;;;4.32;1.60;;;;;;;10.81;49.15;99747.63;7395263;19;20003;-79
2024/04/17 11:15:56;;;;;;;5.05;1.88;;;;;;;10.89;49.38;99745.38;7379522;19;20013;-82
2024/04/17 11:18:23;;;;;;;3.00;1.63;;;;;;;10.95;50.29;99703.56;7391032;19;20018;-78
2024/04/17 11:20:48;;;;;;;6.38;2.00;;;;;;;11.36;49.14;99757.59;7388409;19;20534;-77
2024/04/17 11:23:14;;;;;;;5.80;2.08;;;;;;;11.44;48.79;99765.94;7394297;19;20014;-79
2024/04/17 11:25:41;;;;;;;3.95;1.50;;;;;;;11.58;48.33;99773.91;7394192;19;20023;-78
2024/04/17 11:28:14;;;;;;;4.90;1.70;;;;;;;11.51;48.28;99754.00;7393646;19;20013;-79
2024/04/17 11:30:48;;;;;;;5.20;1.70;;;;;;;11.59;48.61;99770.31;7388744;19;20015;-78